sensor_id;sensor_type;location;lat;lon;timestamp;temperature;humidity
14014;DHT22;49110;52.584;13.408;2024-01-16T00:00:36;3.10;96.00
14014;DHT22;49110;52.584;13.408;2024-01-16T00:01:36;3.00;96.20
14014;DHT22;49110;52.584;13.408;2024-01-16T00:02:36;3.10;96.40
14014;DHT22;49110;52.584;13.408;2024-01-16T00:03:38;3.10;96.40
14014;DHT22;49110;52.584;13.408;2024-01-16T00:04:38;3.10;96.30
14014;DHT22;49110;52.584;13.408;2024-01-16T00:05:41;3.10;96.20
14014;DHT22;49110;52.584;13.408;2024-01-16T00:06:41;3.00;96.10
14014;DHT22;49110;52.584;13.408;2024-01-16T00:07:42;3.00;95.70
14014;DHT22;49110;52.584;13.408;2024-01-16T00:08:42;3.00;95.80
14014;DHT22;49110;52.584;13.408;2024-01-16T00:09:43;3.10;95.70
14014;DHT22;49110;52.584;13.408;2024-01-16T00:10:43;3.00;95.40
14014;DHT22;49110;52.584;13.408;2024-01-16T00:11:44;3.00;95.60
14014;DHT22;49110;52.584;13.408;2024-01-16T00:12:44;3.00;95.90
14014;DHT22;49110;52.584;13.408;2024-01-16T00:13:45;3.00;96.20
14014;DHT22;49110;52.584;13.408;2024-01-16T00:14:45;3.00;96.30
14014;DHT22;49110;52.584;13.408;2024-01-16T00:15:46;3.00;96.40
14014;DHT22;49110;52.584;13.408;2024-01-16T00:16:46;3.00;96.50
14014;DHT22;49110;52.584;13.408;2024-01-16T00:17:48;3.00;96.60
14014;DHT22;49110;52.584;13.408;2024-01-16T00:18:48;3.00;96.60
14014;DHT22;49110;52.584;13.408;2024-01-16T00:19:49;3.00;96.70
14014;DHT22;49110;52.584;13.408;2024-01-16T00:20:49;3.00;96.90
14014;DHT22;49110;52.584;13.408;2024-01-16T00:21:50;2.90;96.90
14014;DHT22;49110;52.584;13.408;2024-01-16T00:22:51;3.00;97.00
14014;DHT22;49110;52.584;13.408;2024-01-16T00:23:52;3.00;97.20
14014;DHT22;49110;52.584;13.408;2024-01-16T00:24:52;3.00;97.20
14014;DHT22;49110;52.584;13.408;2024-01-16T00:25:52;3.00;97.20
14014;DHT22;49110;52.584;13.408;2024-01-16T00:26:53;3.00;97.40
14014;DHT22;49110;52.584;13.408;2024-01-16T00:27:55;3.00;97.50
14014;DHT22;49110;52.584;13.408;2024-01-16T00:28:55;3.00;97.60
14014;DHT22;49110;52.584;13.408;2024-01-16T00:29:56;3.00;97.70
14014;DHT22;49110;52.584;13.408;2024-01-16T00:30:56;3.00;97.80
14014;DHT22;49110;52.584;13.408;2024-01-16T00:31:57;3.00;98.00
14014;DHT22;49110;52.584;13.408;2024-01-16T00:32:57;3.00;98.10
14014;DHT22;49110;52.584;13.408;2024-01-16T00:33:58;3.00;98.10
14014;DHT22;49110;52.584;13.408;2024-01-16T00:34:58;3.00;98.00
14014;DHT22;49110;52.584;13.408;2024-01-16T00:35:59;3.00;98.00
14014;DHT22;49110;52.584;13.408;2024-01-16T00:36:59;3.00;98.10
14014;DHT22;49110;52.584;13.408;2024-01-16T00:38:00;2.90;98.40
14014;DHT22;49110;52.584;13.408;2024-01-16T00:39:00;2.90;98.50
14014;DHT22;49110;52.584;13.408;2024-01-16T00:40:03;2.90;98.50
14014;DHT22;49110;52.584;13.408;2024-01-16T00:41:04;2.90;98.80
14014;DHT22;49110;52.584;13.408;2024-01-16T00:42:05;2.90;98.90
14014;DHT22;49110;52.584;13.408;2024-01-16T00:43:06;2.90;99.00
14014;DHT22;49110;52.584;13.408;2024-01-16T00:44:06;2.80;99.20
14014;DHT22;49110;52.584;13.408;2024-01-16T00:45:08;2.80;99.50
14014;DHT22;49110;52.584;13.408;2024-01-16T00:46:08;2.80;99.60
14014;DHT22;49110;52.584;13.408;2024-01-16T00:47:09;2.90;99.50
14014;DHT22;49110;52.584;13.408;2024-01-16T00:48:09;2.80;99.60
14014;DHT22;49110;52.584;13.408;2024-01-16T00:49:13;2.80;99.80
14014;DHT22;49110;52.584;13.408;2024-01-16T00:50:14;2.90;99.90
14014;DHT22;49110;52.584;13.408;2024-01-16T00:51:15;2.80;99.90
14014;DHT22;49110;52.584;13.408;2024-01-16T00:52:15;2.50;99.90
14014;DHT22;49110;52.584;13.408;2024-01-16T00:53:16;2.40;99.90
14014;DHT22;49110;52.584;13.408;2024-01-16T00:54:17;2.20;99.90
14014;DHT22;49110;52.584;13.408;2024-01-16T00:55:17;2.10;99.90
14014;DHT22;49110;52.584;13.408;2024-01-16T00:56:18;2.00;99.90
14014;DHT22;49110;52.584;13.408;2024-01-16T00:57:18;2.00;99.90
14014;DHT22;49110;52.584;13.408;2024-01-16T00:58:22;2.10;99.90
14014;DHT22;49110;52.584;13.408;2024-01-16T00:59:23;2.20;99.90
14014;DHT22;49110;52.584;13.408;2024-01-16T01:00:23;2.20;99.90
14014;DHT22;49110;52.584;13.408;2024-01-16T01:01:24;2.30;99.90
14014;DHT22;49110;52.584;13.408;2024-01-16T01:02:24;2.30;99.90
14014;DHT22;49110;52.584;13.408;2024-01-16T01:03:25;2.40;99.90
14014;DHT22;49110;52.584;13.408;2024-01-16T01:04:25;2.30;99.90
14014;DHT22;49110;52.584;13.408;2024-01-16T01:05:26;2.30;99.90
14014;DHT22;49110;52.584;13.408;2024-01-16T01:06:28;2.20;99.90
14014;DHT22;49110;52.584;13.408;2024-01-16T01:07:29;2.20;99.90
14014;DHT22;49110;52.584;13.408;2024-01-16T01:08:29;2.20;99.90
14014;DHT22;49110;52.584;13.408;2024-01-16T01:09:32;2.20;99.90
14014;DHT22;49110;52.584;13.408;2024-01-16T01:10:33;2.20;99.90
14014;DHT22;49110;52.584;13.408;2024-01-16T01:11:33;2.20;99.90
14014;DHT22;49110;52.584;13.408;2024-01-16T01:12:34;2.30;99.90
14014;DHT22;49110;52.584;13.408;2024-01-16T01:13:34;2.30;99.90
14014;DHT22;49110;52.584;13.408;2024-01-16T01:14:35;2.30;99.90
14014;DHT22;49110;52.584;13.408;2024-01-16T01:15:35;2.30;99.90
14014;DHT22;49110;52.584;13.408;2024-01-16T01:16:35;2.30;99.90
14014;DHT22;49110;52.584;13.408;2024-01-16T01:17:36;2.30;99.90
14014;DHT22;49110;52.584;13.408;2024-01-16T01:18:36;2.40;99.90
14014;DHT22;49110;52.584;13.408;2024-01-16T01:19:37;2.40;99.90
14014;DHT22;49110;52.584;13.408;2024-01-16T01:20:37;2.40;99.90
14014;DHT22;49110;52.584;13.408;2024-01-16T01:21:38;2.50;99.90
14014;DHT22;49110;52.584;13.408;2024-01-16T01:22:38;2.60;99.90
14014;DHT22;49110;52.584;13.408;2024-01-16T01:23:39;2.60;99.90
14014;DHT22;49110;52.584;13.408;2024-01-16T01:24:39;2.60;99.90
14014;DHT22;49110;52.584;13.408;2024-01-16T01:25:40;2.60;99.90
14014;DHT22;49110;52.584;13.408;2024-01-16T01:26:44;2.60;99.90
14014;DHT22;49110;52.584;13.408;2024-01-16T01:27:44;2.70;99.90
14014;DHT22;49110;52.584;13.408;2024-01-16T01:28:45;2.70;99.90
14014;DHT22;49110;52.584;13.408;2024-01-16T01:29:45;2.60;99.90
14014;DHT22;49110;52.584;13.408;2024-01-16T01:30:46;2.60;99.90
14014;DHT22;49110;52.584;13.408;2024-01-16T01:31:47;2.50;99.90
14014;DHT22;49110;52.584;13.408;2024-01-16T01:32:50;2.60;99.90
14014;DHT22;49110;52.584;13.408;2024-01-16T01:33:50;2.50;99.90
14014;DHT22;49110;52.584;13.408;2024-01-16T01:34:51;2.60;99.90
14014;DHT22;49110;52.584;13.408;2024-01-16T01:35:51;2.50;99.90
14014;DHT22;49110;52.584;13.408;2024-01-16T01:36:51;2.50;99.90
14014;DHT22;49110;52.584;13.408;2024-01-16T01:37:52;2.30;99.90
14014;DHT22;49110;52.584;13.408;2024-01-16T01:38:52;2.30;99.90
14014;DHT22;49110;52.584;13.408;2024-01-16T01:39:53;2.20;99.90
14014;DHT22;49110;52.584;13.408;2024-01-16T01:40:53;2.20;99.90
14014;DHT22;49110;52.584;13.408;2024-01-16T01:41:55;2.30;99.90
14014;DHT22;49110;52.584;13.408;2024-01-16T01:42:55;2.30;99.90
14014;DHT22;49110;52.584;13.408;2024-01-16T01:43:56;2.40;99.90
14014;DHT22;49110;52.584;13.408;2024-01-16T01:44:56;2.40;99.90
14014;DHT22;49110;52.584;13.408;2024-01-16T01:46:11;2.40;99.90
14014;DHT22;49110;52.584;13.408;2024-01-16T01:47:14;2.40;99.90
14014;DHT22;49110;52.584;13.408;2024-01-16T01:48:14;2.40;99.90
14014;DHT22;49110;52.584;13.408;2024-01-16T01:49:15;2.40;99.90
14014;DHT22;49110;52.584;13.408;2024-01-16T01:50:16;2.30;99.90
14014;DHT22;49110;52.584;13.408;2024-01-16T01:51:18;2.30;99.90
14014;DHT22;49110;52.584;13.408;2024-01-16T01:52:19;2.30;99.90
14014;DHT22;49110;52.584;13.408;2024-01-16T01:53:19;2.20;99.90
14014;DHT22;49110;52.584;13.408;2024-01-16T01:54:20;2.10;99.90
14014;DHT22;49110;52.584;13.408;2024-01-16T01:55:23;2.00;99.90
14014;DHT22;49110;52.584;13.408;2024-01-16T01:56:23;2.10;99.90
14014;DHT22;49110;52.584;13.408;2024-01-16T01:57:24;2.10;99.90
14014;DHT22;49110;52.584;13.408;2024-01-16T01:58:24;2.20;99.90
14014;DHT22;49110;52.584;13.408;2024-01-16T01:59:25;2.30;99.90
14014;DHT22;49110;52.584;13.408;2024-01-16T02:00:26;2.30;99.90
14014;DHT22;49110;52.584;13.408;2024-01-16T02:01:28;2.30;99.90
14014;DHT22;49110;52.584;13.408;2024-01-16T02:02:30;2.20;99.90
14014;DHT22;49110;52.584;13.408;2024-01-16T02:03:44;2.10;99.90
14014;DHT22;49110;52.584;13.408;2024-01-16T02:04:45;2.10;99.90
14014;DHT22;49110;52.584;13.408;2024-01-16T02:05:48;2.10;99.90
14014;DHT22;49110;52.584;13.408;2024-01-16T02:06:49;2.10;99.90
14014;DHT22;49110;52.584;13.408;2024-01-16T02:07:50;2.10;99.90
14014;DHT22;49110;52.584;13.408;2024-01-16T02:08:51;2.10;99.90
14014;DHT22;49110;52.584;13.408;2024-01-16T02:09:51;2.10;99.90
14014;DHT22;49110;52.584;13.408;2024-01-16T02:10:52;2.10;99.90
14014;DHT22;49110;52.584;13.408;2024-01-16T02:11:52;2.20;99.90
14014;DHT22;49110;52.584;13.408;2024-01-16T02:12:53;2.20;99.90
14014;DHT22;49110;52.584;13.408;2024-01-16T02:13:53;2.20;99.90
14014;DHT22;49110;52.584;13.408;2024-01-16T02:14:54;2.10;99.90
14014;DHT22;49110;52.584;13.408;2024-01-16T02:15:54;2.10;99.90
14014;DHT22;49110;52.584;13.408;2024-01-16T02:16:55;2.10;99.90
14014;DHT22;49110;52.584;13.408;2024-01-16T02:17:57;2.10;99.90
14014;DHT22;49110;52.584;13.408;2024-01-16T02:18:57;2.20;99.90
14014;DHT22;49110;52.584;13.408;2024-01-16T02:19:58;2.20;99.90
14014;DHT22;49110;52.584;13.408;2024-01-16T02:21:04;2.20;99.90
14014;DHT22;49110;52.584;13.408;2024-01-16T02:22:09;2.30;99.90
14014;DHT22;49110;52.584;13.408;2024-01-16T02:23:14;2.10;99.90
14014;DHT22;49110;52.584;13.408;2024-01-16T02:24:15;2.10;99.90
14014;DHT22;49110;52.584;13.408;2024-01-16T02:25:17;2.20;99.90
14014;DHT22;49110;52.584;13.408;2024-01-16T02:26:18;2.20;99.90
14014;DHT22;49110;52.584;13.408;2024-01-16T02:27:19;2.20;99.90
14014;DHT22;49110;52.584;13.408;2024-01-16T02:28:19;2.20;99.90
14014;DHT22;49110;52.584;13.408;2024-01-16T02:29:20;2.20;99.90
14014;DHT22;49110;52.584;13.408;2024-01-16T02:30:20;2.10;99.90
14014;DHT22;49110;52.584;13.408;2024-01-16T02:31:21;2.20;99.90
14014;DHT22;49110;52.584;13.408;2024-01-16T02:32:22;2.20;99.90
14014;DHT22;49110;52.584;13.408;2024-01-16T02:33:22;2.20;99.90
14014;DHT22;49110;52.584;13.408;2024-01-16T02:34:23;2.10;99.90
14014;DHT22;49110;52.584;13.408;2024-01-16T02:35:24;2.10;99.90
14014;DHT22;49110;52.584;13.408;2024-01-16T02:36:28;2.10;99.90
14014;DHT22;49110;52.584;13.408;2024-01-16T02:37:29;2.00;99.90
14014;DHT22;49110;52.584;13.408;2024-01-16T02:38:30;1.90;99.90
14014;DHT22;49110;52.584;13.408;2024-01-16T02:39:30;1.90;99.90
14014;DHT22;49110;52.584;13.408;2024-01-16T02:40:31;1.80;99.90
14014;DHT22;49110;52.584;13.408;2024-01-16T02:41:31;1.80;99.90
14014;DHT22;49110;52.584;13.408;2024-01-16T02:42:32;1.80;99.90
14014;DHT22;49110;52.584;13.408;2024-01-16T02:43:33;1.90;99.90
14014;DHT22;49110;52.584;13.408;2024-01-16T02:44:33;1.90;99.90
14014;DHT22;49110;52.584;13.408;2024-01-16T02:45:34;1.90;99.90
14014;DHT22;49110;52.584;13.408;2024-01-16T02:46:34;1.80;99.90
14014;DHT22;49110;52.584;13.408;2024-01-16T02:47:35;1.70;99.90
14014;DHT22;49110;52.584;13.408;2024-01-16T02:48:36;1.70;99.90
14014;DHT22;49110;52.584;13.408;2024-01-16T02:49:37;1.70;99.90
14014;DHT22;49110;52.584;13.408;2024-01-16T02:50:37;1.70;99.90
14014;DHT22;49110;52.584;13.408;2024-01-16T02:51:39;1.60;99.90
14014;DHT22;49110;52.584;13.408;2024-01-16T02:52:40;1.60;99.90
14014;DHT22;49110;52.584;13.408;2024-01-16T02:53:40;1.60;99.90
14014;DHT22;49110;52.584;13.408;2024-01-16T02:54:40;1.60;99.90
14014;DHT22;49110;52.584;13.408;2024-01-16T02:55:41;1.60;99.90
14014;DHT22;49110;52.584;13.408;2024-01-16T02:56:41;1.60;99.90
14014;DHT22;49110;52.584;13.408;2024-01-16T02:57:42;1.50;99.90
14014;DHT22;49110;52.584;13.408;2024-01-16T02:58:42;1.50;99.90
14014;DHT22;49110;52.584;13.408;2024-01-16T02:59:44;1.50;99.90
14014;DHT22;49110;52.584;13.408;2024-01-16T03:00:45;1.40;99.90
14014;DHT22;49110;52.584;13.408;2024-01-16T03:01:45;1.50;99.90
14014;DHT22;49110;52.584;13.408;2024-01-16T03:02:45;1.50;99.90
14014;DHT22;49110;52.584;13.408;2024-01-16T03:03:46;1.50;99.90
14014;DHT22;49110;52.584;13.408;2024-01-16T03:04:46;1.50;99.90
14014;DHT22;49110;52.584;13.408;2024-01-16T03:05:47;1.50;99.90
14014;DHT22;49110;52.584;13.408;2024-01-16T03:06:48;1.60;99.90
14014;DHT22;49110;52.584;13.408;2024-01-16T03:07:48;1.60;99.90
14014;DHT22;49110;52.584;13.408;2024-01-16T03:08:49;1.60;99.90
14014;DHT22;49110;52.584;13.408;2024-01-16T03:09:49;1.60;99.90
14014;DHT22;49110;52.584;13.408;2024-01-16T03:10:50;1.60;99.90
14014;DHT22;49110;52.584;13.408;2024-01-16T03:11:50;1.60;99.90
14014;DHT22;49110;52.584;13.408;2024-01-16T03:12:51;1.60;99.90
14014;DHT22;49110;52.584;13.408;2024-01-16T03:13:51;1.50;99.90
14014;DHT22;49110;52.584;13.408;2024-01-16T03:14:53;1.50;99.90
14014;DHT22;49110;52.584;13.408;2024-01-16T03:15:54;1.50;99.90
14014;DHT22;49110;52.584;13.408;2024-01-16T03:16:55;1.40;99.90
14014;DHT22;49110;52.584;13.408;2024-01-16T03:17:55;1.50;99.90
14014;DHT22;49110;52.584;13.408;2024-01-16T03:18:56;1.50;99.90
14014;DHT22;49110;52.584;13.408;2024-01-16T03:19:56;1.40;99.90
14014;DHT22;49110;52.584;13.408;2024-01-16T03:20:58;1.40;99.90
14014;DHT22;49110;52.584;13.408;2024-01-16T03:21:59;1.40;99.90
14014;DHT22;49110;52.584;13.408;2024-01-16T03:22:59;1.40;99.90
14014;DHT22;49110;52.584;13.408;2024-01-16T03:24:00;1.30;99.90
14014;DHT22;49110;52.584;13.408;2024-01-16T03:25:00;1.30;99.90
14014;DHT22;49110;52.584;13.408;2024-01-16T03:26:02;1.20;99.90
14014;DHT22;49110;52.584;13.408;2024-01-16T03:27:04;1.20;99.90
14014;DHT22;49110;52.584;13.408;2024-01-16T03:28:05;1.20;99.90
14014;DHT22;49110;52.584;13.408;2024-01-16T03:29:08;1.20;99.90
14014;DHT22;49110;52.584;13.408;2024-01-16T03:30:08;1.30;99.90
14014;DHT22;49110;52.584;13.408;2024-01-16T03:31:09;1.30;99.90
14014;DHT22;49110;52.584;13.408;2024-01-16T03:32:10;1.30;99.90
14014;DHT22;49110;52.584;13.408;2024-01-16T03:33:10;1.40;99.90
14014;DHT22;49110;52.584;13.408;2024-01-16T03:34:11;1.50;99.90
14014;DHT22;49110;52.584;13.408;2024-01-16T03:35:11;1.50;99.90
14014;DHT22;49110;52.584;13.408;2024-01-16T03:36:12;1.60;99.90
14014;DHT22;49110;52.584;13.408;2024-01-16T03:37:13;1.60;99.90
14014;DHT22;49110;52.584;13.408;2024-01-16T03:38:13;1.70;99.90
14014;DHT22;49110;52.584;13.408;2024-01-16T03:39:14;1.70;99.90
14014;DHT22;49110;52.584;13.408;2024-01-16T03:40:15;1.70;99.90
14014;DHT22;49110;52.584;13.408;2024-01-16T03:41:15;1.70;99.90
14014;DHT22;49110;52.584;13.408;2024-01-16T03:42:16;1.70;99.90
14014;DHT22;49110;52.584;13.408;2024-01-16T03:43:16;1.80;99.90
14014;DHT22;49110;52.584;13.408;2024-01-16T03:44:17;1.70;99.90
14014;DHT22;49110;52.584;13.408;2024-01-16T03:45:17;1.80;99.90
14014;DHT22;49110;52.584;13.408;2024-01-16T03:46:18;1.80;99.90
14014;DHT22;49110;52.584;13.408;2024-01-16T03:47:19;1.80;99.90
14014;DHT22;49110;52.584;13.408;2024-01-16T03:48:19;1.80;99.90
14014;DHT22;49110;52.584;13.408;2024-01-16T03:49:20;1.80;99.90
14014;DHT22;49110;52.584;13.408;2024-01-16T03:50:21;1.90;99.90
14014;DHT22;49110;52.584;13.408;2024-01-16T03:51:22;1.80;99.90
14014;DHT22;49110;52.584;13.408;2024-01-16T03:52:22;1.80;99.90
14014;DHT22;49110;52.584;13.408;2024-01-16T03:53:23;1.80;99.90
14014;DHT22;49110;52.584;13.408;2024-01-16T03:54:23;1.80;99.90
14014;DHT22;49110;52.584;13.408;2024-01-16T03:55:24;1.70;99.90
14014;DHT22;49110;52.584;13.408;2024-01-16T03:56:25;1.80;99.90
14014;DHT22;49110;52.584;13.408;2024-01-16T03:57:25;1.80;99.90
14014;DHT22;49110;52.584;13.408;2024-01-16T03:58:26;1.80;99.90
14014;DHT22;49110;52.584;13.408;2024-01-16T03:59:26;1.80;99.90
14014;DHT22;49110;52.584;13.408;2024-01-16T04:00:27;1.80;99.90
14014;DHT22;49110;52.584;13.408;2024-01-16T04:01:34;1.80;99.90
14014;DHT22;49110;52.584;13.408;2024-01-16T04:02:37;1.90;99.90
14014;DHT22;49110;52.584;13.408;2024-01-16T04:03:39;1.90;99.90
14014;DHT22;49110;52.584;13.408;2024-01-16T04:04:39;1.90;99.90
14014;DHT22;49110;52.584;13.408;2024-01-16T04:05:40;1.90;99.90
14014;DHT22;49110;52.584;13.408;2024-01-16T04:06:40;1.90;99.90
14014;DHT22;49110;52.584;13.408;2024-01-16T04:07:41;1.90;99.90
14014;DHT22;49110;52.584;13.408;2024-01-16T04:08:41;1.90;99.90
14014;DHT22;49110;52.584;13.408;2024-01-16T04:09:43;1.80;99.90
14014;DHT22;49110;52.584;13.408;2024-01-16T04:10:44;1.80;99.90
14014;DHT22;49110;52.584;13.408;2024-01-16T04:11:44;1.80;99.90
14014;DHT22;49110;52.584;13.408;2024-01-16T04:12:45;1.80;99.90
14014;DHT22;49110;52.584;13.408;2024-01-16T04:13:46;1.80;99.90
14014;DHT22;49110;52.584;13.408;2024-01-16T04:14:46;1.70;99.90
14014;DHT22;49110;52.584;13.408;2024-01-16T04:15:47;1.70;99.90
14014;DHT22;49110;52.584;13.408;2024-01-16T04:16:47;1.70;99.90
14014;DHT22;49110;52.584;13.408;2024-01-16T04:17:48;1.70;99.90
14014;DHT22;49110;52.584;13.408;2024-01-16T04:18:48;1.70;99.90
14014;DHT22;49110;52.584;13.408;2024-01-16T04:19:49;1.70;99.90
14014;DHT22;49110;52.584;13.408;2024-01-16T04:20:49;1.60;99.90
14014;DHT22;49110;52.584;13.408;2024-01-16T04:21:51;1.70;99.90
14014;DHT22;49110;52.584;13.408;2024-01-16T04:22:51;1.60;99.90
14014;DHT22;49110;52.584;13.408;2024-01-16T04:23:52;1.70;99.90
14014;DHT22;49110;52.584;13.408;2024-01-16T04:24:52;1.70;99.90
14014;DHT22;49110;52.584;13.408;2024-01-16T04:25:53;1.70;99.90
14014;DHT22;49110;52.584;13.408;2024-01-16T04:26:54;1.70;99.90
14014;DHT22;49110;52.584;13.408;2024-01-16T04:27:54;1.70;99.90
14014;DHT22;49110;52.584;13.408;2024-01-16T04:28:55;1.70;99.90
14014;DHT22;49110;52.584;13.408;2024-01-16T04:29:55;1.70;99.90
14014;DHT22;49110;52.584;13.408;2024-01-16T04:30:56;1.70;99.90
14014;DHT22;49110;52.584;13.408;2024-01-16T04:31:57;1.60;99.90
14014;DHT22;49110;52.584;13.408;2024-01-16T04:32:57;1.60;99.90
14014;DHT22;49110;52.584;13.408;2024-01-16T04:33:58;1.60;99.90
14014;DHT22;49110;52.584;13.408;2024-01-16T04:34:59;1.60;99.90
14014;DHT22;49110;52.584;13.408;2024-01-16T04:36:00;1.60;99.90
14014;DHT22;49110;52.584;13.408;2024-01-16T04:37:00;1.70;99.90
14014;DHT22;49110;52.584;13.408;2024-01-16T04:38:01;1.70;99.90
14014;DHT22;49110;52.584;13.408;2024-01-16T04:39:03;1.70;99.90
14014;DHT22;49110;52.584;13.408;2024-01-16T04:40:04;1.70;99.90
14014;DHT22;49110;52.584;13.408;2024-01-16T04:41:05;1.70;99.90
14014;DHT22;49110;52.584;13.408;2024-01-16T04:42:06;1.70;99.90
14014;DHT22;49110;52.584;13.408;2024-01-16T04:43:06;1.70;99.90
14014;DHT22;49110;52.584;13.408;2024-01-16T04:44:07;1.80;99.90
14014;DHT22;49110;52.584;13.408;2024-01-16T04:45:07;1.80;99.90
14014;DHT22;49110;52.584;13.408;2024-01-16T04:46:08;1.80;99.90
14014;DHT22;49110;52.584;13.408;2024-01-16T04:47:08;1.80;99.90
14014;DHT22;49110;52.584;13.408;2024-01-16T04:48:09;1.90;99.90
14014;DHT22;49110;52.584;13.408;2024-01-16T04:49:10;1.80;99.90
14014;DHT22;49110;52.584;13.408;2024-01-16T04:50:11;1.80;99.90
14014;DHT22;49110;52.584;13.408;2024-01-16T04:51:12;1.80;99.90
14014;DHT22;49110;52.584;13.408;2024-01-16T04:52:12;1.80;99.90
14014;DHT22;49110;52.584;13.408;2024-01-16T04:53:14;1.80;99.90
14014;DHT22;49110;52.584;13.408;2024-01-16T04:54:14;1.80;99.90
14014;DHT22;49110;52.584;13.408;2024-01-16T04:55:15;1.80;99.90
14014;DHT22;49110;52.584;13.408;2024-01-16T04:56:15;1.80;99.90
14014;DHT22;49110;52.584;13.408;2024-01-16T04:57:16;1.80;99.90
14014;DHT22;49110;52.584;13.408;2024-01-16T04:58:16;1.70;99.90
14014;DHT22;49110;52.584;13.408;2024-01-16T04:59:17;1.70;99.90
14014;DHT22;49110;52.584;13.408;2024-01-16T05:00:17;1.70;99.90
14014;DHT22;49110;52.584;13.408;2024-01-16T05:01:18;1.70;99.90
14014;DHT22;49110;52.584;13.408;2024-01-16T05:02:18;1.70;99.90
14014;DHT22;49110;52.584;13.408;2024-01-16T05:03:19;1.70;99.90
14014;DHT22;49110;52.584;13.408;2024-01-16T05:04:19;1.60;99.90
14014;DHT22;49110;52.584;13.408;2024-01-16T05:05:20;1.70;99.90
14014;DHT22;49110;52.584;13.408;2024-01-16T05:06:20;1.70;99.90
14014;DHT22;49110;52.584;13.408;2024-01-16T05:07:23;1.70;99.90
14014;DHT22;49110;52.584;13.408;2024-01-16T05:08:24;1.80;99.90
14014;DHT22;49110;52.584;13.408;2024-01-16T05:09:24;1.80;99.90
14014;DHT22;49110;52.584;13.408;2024-01-16T05:10:25;1.80;99.90
14014;DHT22;49110;52.584;13.408;2024-01-16T05:11:25;1.80;99.90
14014;DHT22;49110;52.584;13.408;2024-01-16T05:12:26;1.70;99.90
14014;DHT22;49110;52.584;13.408;2024-01-16T05:13:26;1.80;99.90
14014;DHT22;49110;52.584;13.408;2024-01-16T05:14:27;1.80;99.90
14014;DHT22;49110;52.584;13.408;2024-01-16T05:15:27;1.80;99.90
14014;DHT22;49110;52.584;13.408;2024-01-16T05:16:27;1.70;99.90
14014;DHT22;49110;52.584;13.408;2024-01-16T05:17:28;1.70;99.90
14014;DHT22;49110;52.584;13.408;2024-01-16T05:18:28;1.60;99.90
14014;DHT22;49110;52.584;13.408;2024-01-16T05:19:29;1.70;99.90
14014;DHT22;49110;52.584;13.408;2024-01-16T05:20:29;1.70;99.90
14014;DHT22;49110;52.584;13.408;2024-01-16T05:21:30;1.70;99.90
14014;DHT22;49110;52.584;13.408;2024-01-16T05:22:30;1.70;99.90
14014;DHT22;49110;52.584;13.408;2024-01-16T05:23:31;1.70;99.90
14014;DHT22;49110;52.584;13.408;2024-01-16T05:24:32;1.70;99.90
14014;DHT22;49110;52.584;13.408;2024-01-16T05:25:32;1.70;99.90
14014;DHT22;49110;52.584;13.408;2024-01-16T05:26:32;1.70;99.90
14014;DHT22;49110;52.584;13.408;2024-01-16T05:27:34;1.70;99.90
14014;DHT22;49110;52.584;13.408;2024-01-16T05:28:34;1.70;99.90
14014;DHT22;49110;52.584;13.408;2024-01-16T05:29:35;1.70;99.90
14014;DHT22;49110;52.584;13.408;2024-01-16T05:30:37;1.70;99.90
14014;DHT22;49110;52.584;13.408;2024-01-16T05:31:41;1.70;99.90
14014;DHT22;49110;52.584;13.408;2024-01-16T05:32:42;1.70;99.90
14014;DHT22;49110;52.584;13.408;2024-01-16T05:33:43;1.70;99.90
14014;DHT22;49110;52.584;13.408;2024-01-16T05:34:43;1.70;99.90
14014;DHT22;49110;52.584;13.408;2024-01-16T05:35:44;1.70;99.90
14014;DHT22;49110;52.584;13.408;2024-01-16T05:36:45;1.70;99.90
14014;DHT22;49110;52.584;13.408;2024-01-16T05:37:45;1.70;99.90
14014;DHT22;49110;52.584;13.408;2024-01-16T05:38:46;1.70;99.90
14014;DHT22;49110;52.584;13.408;2024-01-16T05:39:46;1.70;99.90
14014;DHT22;49110;52.584;13.408;2024-01-16T05:40:46;1.60;99.90
14014;DHT22;49110;52.584;13.408;2024-01-16T05:41:47;1.70;99.90
14014;DHT22;49110;52.584;13.408;2024-01-16T05:42:50;1.60;99.90
14014;DHT22;49110;52.584;13.408;2024-01-16T05:43:51;1.60;99.90
14014;DHT22;49110;52.584;13.408;2024-01-16T05:44:51;1.60;99.90
14014;DHT22;49110;52.584;13.408;2024-01-16T05:45:54;1.60;99.90
14014;DHT22;49110;52.584;13.408;2024-01-16T05:46:54;1.50;99.90
14014;DHT22;49110;52.584;13.408;2024-01-16T05:47:55;1.50;99.90
14014;DHT22;49110;52.584;13.408;2024-01-16T05:48:56;1.50;99.90
14014;DHT22;49110;52.584;13.408;2024-01-16T05:49:57;1.50;99.90
14014;DHT22;49110;52.584;13.408;2024-01-16T05:50:57;1.50;99.90
14014;DHT22;49110;52.584;13.408;2024-01-16T05:51:58;1.40;99.90
14014;DHT22;49110;52.584;13.408;2024-01-16T05:52:59;1.40;99.90
14014;DHT22;49110;52.584;13.408;2024-01-16T05:53:59;1.50;99.90
14014;DHT22;49110;52.584;13.408;2024-01-16T05:55:00;1.40;99.90
14014;DHT22;49110;52.584;13.408;2024-01-16T05:56:01;1.40;99.90
14014;DHT22;49110;52.584;13.408;2024-01-16T05:57:01;1.50;99.90
14014;DHT22;49110;52.584;13.408;2024-01-16T05:58:03;1.50;99.90
14014;DHT22;49110;52.584;13.408;2024-01-16T05:59:03;1.40;99.90
14014;DHT22;49110;52.584;13.408;2024-01-16T06:00:05;1.40;99.90
14014;DHT22;49110;52.584;13.408;2024-01-16T06:01:06;1.50;99.90
14014;DHT22;49110;52.584;13.408;2024-01-16T06:02:06;1.40;99.90
14014;DHT22;49110;52.584;13.408;2024-01-16T06:03:07;1.50;99.90
14014;DHT22;49110;52.584;13.408;2024-01-16T06:04:07;1.40;99.90
14014;DHT22;49110;52.584;13.408;2024-01-16T06:05:08;1.50;99.90
14014;DHT22;49110;52.584;13.408;2024-01-16T06:06:08;1.40;99.90
14014;DHT22;49110;52.584;13.408;2024-01-16T06:07:09;1.50;99.90
14014;DHT22;49110;52.584;13.408;2024-01-16T06:08:09;1.40;99.90
14014;DHT22;49110;52.584;13.408;2024-01-16T06:09:10;1.40;99.90
14014;DHT22;49110;52.584;13.408;2024-01-16T06:10:14;1.40;99.90
14014;DHT22;49110;52.584;13.408;2024-01-16T06:11:15;1.40;99.90
14014;DHT22;49110;52.584;13.408;2024-01-16T06:12:15;1.40;99.90
14014;DHT22;49110;52.584;13.408;2024-01-16T06:13:19;1.40;99.90
14014;DHT22;49110;52.584;13.408;2024-01-16T06:14:20;1.40;99.90
14014;DHT22;49110;52.584;13.408;2024-01-16T06:15:21;1.40;99.90
14014;DHT22;49110;52.584;13.408;2024-01-16T06:16:23;1.50;99.90
14014;DHT22;49110;52.584;13.408;2024-01-16T06:17:25;1.50;99.90
14014;DHT22;49110;52.584;13.408;2024-01-16T06:18:25;1.50;99.90
14014;DHT22;49110;52.584;13.408;2024-01-16T06:19:26;1.50;99.90
14014;DHT22;49110;52.584;13.408;2024-01-16T06:20:26;1.50;99.90
14014;DHT22;49110;52.584;13.408;2024-01-16T06:21:29;1.50;99.90
14014;DHT22;49110;52.584;13.408;2024-01-16T06:22:29;1.50;99.90
14014;DHT22;49110;52.584;13.408;2024-01-16T06:23:29;1.50;99.90
14014;DHT22;49110;52.584;13.408;2024-01-16T06:24:31;1.50;99.90